JST811 YBBN-YSSY
Flight info
| Callsign | JST811 |
|---|---|
| Flight time | 1h 8m |
| Altitude | 36000 |
| Route | BN H91 IGDAM H652 TESAT |
| Aircraft | A21N/M-SDE2E3FGHIRWXY/LB1 |
Departure
| Time | 2026-05-05 11:47 |
|---|---|
| Airport | Brisbane International Airport (YBBN) |
Arrival
| Time | 2026-05-05 12:55 |
|---|---|
| Airport | Sydney Kingsford Smith International Airport (YSSY) |
| Time | Latitude | Longitude | Altitude | Speed | Heading |
|---|---|---|---|---|---|
| 2026-05-05 11:36 | -27.38670 | 153.12216 | 18 ft | 0 kts | 322° |
| 2026-05-05 11:41 | -27.38673 | 153.12218 | 18 ft | 2 kts | 322° |
| 2026-05-05 11:41 | -27.38687 | 153.12231 | 18 ft | 2 kts | 322° |
| 2026-05-05 11:41 | -27.38702 | 153.12244 | 20 ft | 1 kts | 328° |
| 2026-05-05 11:42 | -27.38720 | 153.12253 | 19 ft | 1 kts | 352° |
| 2026-05-05 11:42 | -27.38739 | 153.12253 | 20 ft | 2 kts | 20° |
| 2026-05-05 11:42 | -27.38746 | 153.12250 | 19 ft | 6 kts | 27° |
| 2026-05-05 11:44 | -27.38742 | 153.12252 | 19 ft | 4 kts | 27° |
| 2026-05-05 11:44 | -27.38681 | 153.12329 | 20 ft | 23 kts | 75° |
| 2026-05-05 11:44 | -27.38529 | 153.12455 | 20 ft | 37 kts | 26° |
| 2026-05-05 11:45 | -27.38271 | 153.12609 | 18 ft | 43 kts | 26° |
| 2026-05-05 11:45 | -27.38056 | 153.12730 | 18 ft | 29 kts | 26° |
| 2026-05-05 11:45 | -27.38008 | 153.12847 | 19 ft | 8 kts | 127° |
| 2026-05-05 11:45 | -27.38035 | 153.12915 | 19 ft | 18 kts | 116° |
| 2026-05-05 11:46 | -27.38157 | 153.13036 | 24 ft | 26 kts | 190° |
| 2026-05-05 11:46 | -27.38387 | 153.12904 | 24 ft | 61 kts | 206° |
| 2026-05-05 11:46 | -27.38976 | 153.12571 | 20 ft | 128 kts | 207° |
| 2026-05-05 11:46 | -27.39960 | 153.12006 | 56 ft | 187 kts | 207° |
| 2026-05-05 11:47 | -27.41178 | 153.11307 | 799 ft | 197 kts | 206° |
| 2026-05-05 11:47 | -27.42422 | 153.10608 | 1708 ft | 201 kts | 196° |
| 2026-05-05 11:47 | -27.43830 | 153.10511 | 2340 ft | 213 kts | 159° |
| 2026-05-05 11:47 | -27.45207 | 153.11259 | 3038 ft | 229 kts | 148° |
| 2026-05-05 11:48 | -27.48013 | 153.13400 | 4701 ft | 257 kts | 153° |
| 2026-05-05 11:48 | -27.49722 | 153.14013 | 5711 ft | 261 kts | 171° |
| 2026-05-05 11:48 | -27.51551 | 153.14179 | 6749 ft | 266 kts | 180° |
| 2026-05-05 11:49 | -27.53413 | 153.14013 | 7715 ft | 271 kts | 189° |
| 2026-05-05 11:49 | -27.55271 | 153.13559 | 8698 ft | 275 kts | 194° |
| 2026-05-05 11:49 | -27.57124 | 153.12952 | 9673 ft | 279 kts | 197° |
| 2026-05-05 11:49 | -27.58993 | 153.12260 | 10458 ft | 290 kts | 198° |
| 2026-05-05 11:50 | -27.60980 | 153.11528 | 10845 ft | 311 kts | 198° |
| 2026-05-05 11:50 | -27.63110 | 153.10761 | 11143 ft | 331 kts | 198° |
| 2026-05-05 11:50 | -27.65367 | 153.09965 | 11502 ft | 349 kts | 198° |
| 2026-05-05 11:50 | -27.67744 | 153.09141 | 11888 ft | 365 kts | 198° |
| 2026-05-05 11:51 | -27.70220 | 153.08296 | 12295 ft | 379 kts | 198° |
| 2026-05-05 11:51 | -27.72784 | 153.07428 | 12824 ft | 388 kts | 198° |
| 2026-05-05 11:51 | -27.75391 | 153.06552 | 13489 ft | 394 kts | 198° |
| 2026-05-05 11:51 | -27.78042 | 153.05659 | 14097 ft | 401 kts | 199° |
| 2026-05-05 11:52 | -27.80708 | 153.04678 | 14669 ft | 405 kts | 201° |
| 2026-05-05 11:52 | -27.83349 | 153.03635 | 15227 ft | 410 kts | 202° |
| 2026-05-05 11:52 | -27.86043 | 153.02528 | 15814 ft | 414 kts | 204° |
| 2026-05-05 11:52 | -27.88760 | 153.01383 | 16385 ft | 419 kts | 204° |
| 2026-05-05 11:53 | -27.91497 | 153.00210 | 16952 ft | 423 kts | 205° |
| 2026-05-05 11:53 | -27.94259 | 152.99013 | 17510 ft | 427 kts | 206° |
| 2026-05-05 11:53 | -27.97042 | 152.97797 | 18055 ft | 431 kts | 206° |
| 2026-05-05 11:53 | -27.99852 | 152.96561 | 18582 ft | 435 kts | 207° |
| 2026-05-05 11:54 | -28.02678 | 152.95309 | 19117 ft | 437 kts | 207° |
| 2026-05-05 11:54 | -28.05509 | 152.94048 | 19665 ft | 439 kts | 207° |
| 2026-05-05 11:54 | -28.08355 | 152.92785 | 20180 ft | 441 kts | 207° |
| 2026-05-05 11:54 | -28.11220 | 152.91517 | 20686 ft | 443 kts | 207° |
| 2026-05-05 11:55 | -28.14100 | 152.90243 | 21192 ft | 445 kts | 207° |
| 2026-05-05 11:55 | -28.16996 | 152.88959 | 21672 ft | 448 kts | 207° |
| 2026-05-05 11:55 | -28.19905 | 152.87670 | 22167 ft | 450 kts | 207° |
| 2026-05-05 11:55 | -28.22835 | 152.86370 | 22629 ft | 453 kts | 207° |
| 2026-05-05 11:56 | -28.25782 | 152.85061 | 23100 ft | 456 kts | 207° |
| 2026-05-05 11:56 | -28.28743 | 152.83744 | 23566 ft | 459 kts | 207° |
| 2026-05-05 11:56 | -28.31724 | 152.82418 | 23958 ft | 462 kts | 207° |
| 2026-05-05 11:56 | -28.34730 | 152.81082 | 24324 ft | 465 kts | 208° |
| 2026-05-05 11:57 | -28.37752 | 152.79739 | 24679 ft | 468 kts | 208° |
| 2026-05-05 11:57 | -28.40794 | 152.78383 | 25012 ft | 471 kts | 208° |
| 2026-05-05 11:57 | -28.43845 | 152.77022 | 25383 ft | 473 kts | 208° |
| 2026-05-05 11:57 | -28.46924 | 152.75648 | 25745 ft | 476 kts | 209° |
| 2026-05-05 11:58 | -28.50009 | 152.74272 | 26084 ft | 479 kts | 209° |
| 2026-05-05 11:58 | -28.53118 | 152.72880 | 26415 ft | 481 kts | 209° |
| 2026-05-05 11:58 | -28.56239 | 152.71482 | 26835 ft | 482 kts | 209° |
| 2026-05-05 11:58 | -28.59356 | 152.70089 | 27333 ft | 481 kts | 210° |
| 2026-05-05 11:59 | -28.62466 | 152.68699 | 27832 ft | 480 kts | 210° |
| 2026-05-05 11:59 | -28.65568 | 152.67313 | 28319 ft | 479 kts | 210° |
| 2026-05-05 11:59 | -28.68633 | 152.65939 | 28817 ft | 478 kts | 211° |
| 2026-05-05 11:59 | -28.71761 | 152.64534 | 29335 ft | 476 kts | 211° |
| 2026-05-05 12:00 | -28.74841 | 152.63147 | 29807 ft | 476 kts | 212° |
| 2026-05-05 12:00 | -28.77913 | 152.61756 | 30284 ft | 475 kts | 212° |
| 2026-05-05 12:00 | -28.80974 | 152.60360 | 30660 ft | 473 kts | 213° |
| 2026-05-05 12:00 | -28.83976 | 152.58851 | 31011 ft | 469 kts | 216° |
| 2026-05-05 12:01 | -28.86913 | 152.57241 | 31363 ft | 468 kts | 217° |
| 2026-05-05 12:01 | -28.89818 | 152.55587 | 31705 ft | 467 kts | 218° |
| 2026-05-05 12:01 | -28.92677 | 152.53930 | 32052 ft | 466 kts | 218° |
| 2026-05-05 12:01 | -28.94626 | 152.52792 | 32283 ft | 466 kts | 218° |
| 2026-05-05 12:02 | -28.98441 | 152.50546 | 32769 ft | 465 kts | 219° |
| 2026-05-05 12:02 | -29.01351 | 152.48825 | 33124 ft | 465 kts | 219° |
| 2026-05-05 12:02 | -29.03254 | 152.47696 | 33346 ft | 465 kts | 219° |
| 2026-05-05 12:02 | -29.07054 | 152.45437 | 33794 ft | 464 kts | 219° |
| 2026-05-05 12:03 | -29.09914 | 152.43735 | 34135 ft | 464 kts | 219° |
| 2026-05-05 12:03 | -29.11848 | 152.42583 | 34334 ft | 463 kts | 219° |
| 2026-05-05 12:03 | -29.15625 | 152.40333 | 34703 ft | 462 kts | 219° |
| 2026-05-05 12:03 | -29.18468 | 152.38636 | 35011 ft | 460 kts | 220° |
| 2026-05-05 12:04 | -29.21303 | 152.36938 | 35311 ft | 459 kts | 220° |
| 2026-05-05 12:04 | -29.24136 | 152.35242 | 35564 ft | 459 kts | 220° |
| 2026-05-05 12:04 | -29.26954 | 152.33554 | 35829 ft | 454 kts | 220° |
| 2026-05-05 12:04 | -29.29734 | 152.31902 | 35962 ft | 447 kts | 220° |
| 2026-05-05 12:05 | -29.35266 | 152.28568 | 36062 ft | 453 kts | 220° |
| 2026-05-05 12:05 | -29.40888 | 152.25156 | 36081 ft | 458 kts | 220° |
| 2026-05-05 12:06 | -29.46468 | 152.21792 | 36059 ft | 452 kts | 220° |
| 2026-05-05 12:06 | -29.52012 | 152.18454 | 36067 ft | 451 kts | 220° |
| 2026-05-05 12:07 | -29.57588 | 152.15071 | 36082 ft | 454 kts | 219° |
| 2026-05-05 12:07 | -29.62267 | 152.12236 | 36092 ft | 453 kts | 219° |
| 2026-05-05 12:08 | -29.67876 | 152.08958 | 36096 ft | 459 kts | 212° |
| 2026-05-05 12:08 | -29.74084 | 152.06767 | 36093 ft | 472 kts | 205° |
| 2026-05-05 12:09 | -29.80488 | 152.04923 | 36082 ft | 474 kts | 204° |
| 2026-05-05 12:09 | -29.86897 | 152.03191 | 36088 ft | 473 kts | 204° |
| 2026-05-05 12:10 | -29.93317 | 152.01483 | 36086 ft | 474 kts | 203° |
| 2026-05-05 12:10 | -29.99759 | 151.99783 | 36088 ft | 475 kts | 203° |
| 2026-05-05 12:11 | -30.06187 | 151.98094 | 36089 ft | 472 kts | 203° |
| 2026-05-05 12:11 | -30.12599 | 151.96406 | 36090 ft | 473 kts | 203° |
| 2026-05-05 12:12 | -30.19025 | 151.94710 | 36086 ft | 473 kts | 203° |
| 2026-05-05 12:12 | -30.25435 | 151.93018 | 36091 ft | 472 kts | 203° |
| 2026-05-05 12:13 | -30.31725 | 151.91085 | 36098 ft | 463 kts | 210° |
| 2026-05-05 12:13 | -30.37719 | 151.88553 | 36090 ft | 460 kts | 212° |
| 2026-05-05 12:14 | -30.43678 | 151.85866 | 36091 ft | 458 kts | 212° |
| 2026-05-05 12:14 | -30.49605 | 151.83144 | 36097 ft | 458 kts | 212° |
| 2026-05-05 12:15 | -30.55522 | 151.80401 | 36096 ft | 459 kts | 212° |
| 2026-05-05 12:15 | -30.61444 | 151.77644 | 36101 ft | 459 kts | 213° |
| 2026-05-05 12:16 | -30.67366 | 151.74881 | 36086 ft | 458 kts | 213° |
| 2026-05-05 12:16 | -30.73284 | 151.72114 | 36095 ft | 459 kts | 213° |
| 2026-05-05 12:17 | -30.79213 | 151.69333 | 36093 ft | 459 kts | 213° |
| 2026-05-05 12:17 | -30.85129 | 151.66557 | 36094 ft | 459 kts | 213° |
| 2026-05-05 12:18 | -30.91050 | 151.63773 | 36105 ft | 459 kts | 213° |
| 2026-05-05 12:18 | -30.96985 | 151.60978 | 36099 ft | 461 kts | 213° |
| 2026-05-05 12:19 | -31.02930 | 151.58174 | 36096 ft | 461 kts | 213° |
| 2026-05-05 12:19 | -31.08863 | 151.55373 | 36105 ft | 460 kts | 213° |
| 2026-05-05 12:20 | -31.14800 | 151.52565 | 36107 ft | 461 kts | 213° |
| 2026-05-05 12:20 | -31.20753 | 151.49745 | 36108 ft | 462 kts | 212° |
| 2026-05-05 12:21 | -31.26698 | 151.46926 | 36116 ft | 461 kts | 212° |
| 2026-05-05 12:21 | -31.32639 | 151.44104 | 36115 ft | 461 kts | 212° |
| 2026-05-05 12:22 | -31.38602 | 151.41308 | 36120 ft | 462 kts | 212° |
| 2026-05-05 12:22 | -31.44609 | 151.38591 | 36124 ft | 463 kts | 211° |
| 2026-05-05 12:23 | -31.50630 | 151.35896 | 36123 ft | 463 kts | 211° |
| 2026-05-05 12:23 | -31.56644 | 151.33211 | 36122 ft | 463 kts | 211° |
| 2026-05-05 12:24 | -31.62674 | 151.30511 | 36132 ft | 464 kts | 211° |
| 2026-05-05 12:24 | -31.68707 | 151.27806 | 36138 ft | 463 kts | 211° |
| 2026-05-05 12:25 | -31.74681 | 151.25126 | 36133 ft | 463 kts | 211° |
| 2026-05-05 12:25 | -31.80709 | 151.22414 | 36129 ft | 463 kts | 211° |
| 2026-05-05 12:26 | -31.86731 | 151.19697 | 36140 ft | 464 kts | 211° |
| 2026-05-05 12:26 | -31.92773 | 151.16969 | 35900 ft | 471 kts | 211° |
| 2026-05-05 12:27 | -31.95846 | 151.15578 | 35418 ft | 475 kts | 210° |
| 2026-05-05 12:27 | -31.98933 | 151.14191 | 34943 ft | 472 kts | 210° |
| 2026-05-05 12:27 | -32.01992 | 151.12824 | 34485 ft | 469 kts | 210° |
| 2026-05-05 12:27 | -32.05046 | 151.11459 | 33990 ft | 470 kts | 210° |
| 2026-05-05 12:28 | -32.08097 | 151.10090 | 33447 ft | 467 kts | 210° |
| 2026-05-05 12:28 | -32.11103 | 151.08746 | 32924 ft | 457 kts | 210° |
| 2026-05-05 12:28 | -32.14053 | 151.07429 | 32409 ft | 448 kts | 210° |
| 2026-05-05 12:28 | -32.16944 | 151.06136 | 31913 ft | 440 kts | 210° |
| 2026-05-05 12:29 | -32.19780 | 151.04864 | 31423 ft | 432 kts | 210° |
| 2026-05-05 12:29 | -32.22561 | 151.03613 | 30940 ft | 424 kts | 210° |
| 2026-05-05 12:29 | -32.25297 | 151.02380 | 30467 ft | 417 kts | 209° |
| 2026-05-05 12:29 | -32.27985 | 151.01164 | 29940 ft | 410 kts | 209° |
| 2026-05-05 12:30 | -32.30626 | 150.99968 | 29389 ft | 403 kts | 209° |
| 2026-05-05 12:30 | -32.33224 | 150.98787 | 28856 ft | 397 kts | 208° |
| 2026-05-05 12:30 | -32.35778 | 150.97627 | 28327 ft | 391 kts | 208° |
| 2026-05-05 12:30 | -32.38301 | 150.96480 | 27807 ft | 385 kts | 208° |
| 2026-05-05 12:31 | -32.40782 | 150.95352 | 27291 ft | 379 kts | 208° |
| 2026-05-05 12:31 | -32.43229 | 150.94241 | 26777 ft | 374 kts | 207° |
| 2026-05-05 12:31 | -32.45641 | 150.93147 | 26293 ft | 369 kts | 207° |
| 2026-05-05 12:31 | -32.48146 | 150.92440 | 25825 ft | 373 kts | 189° |
| 2026-05-05 12:32 | -32.50737 | 150.92351 | 25350 ft | 372 kts | 184° |
| 2026-05-05 12:32 | -32.53315 | 150.92466 | 24875 ft | 369 kts | 181° |
| 2026-05-05 12:32 | -32.55864 | 150.92688 | 24414 ft | 366 kts | 179° |
| 2026-05-05 12:32 | -32.58390 | 150.92979 | 23960 ft | 363 kts | 178° |
| 2026-05-05 12:33 | -32.60883 | 150.93315 | 23444 ft | 359 kts | 177° |
| 2026-05-05 12:33 | -32.63350 | 150.93684 | 22904 ft | 355 kts | 176° |
| 2026-05-05 12:33 | -32.65755 | 150.94069 | 22384 ft | 352 kts | 175° |
| 2026-05-05 12:33 | -32.68152 | 150.94472 | 22107 ft | 339 kts | 175° |
| 2026-05-05 12:34 | -32.70399 | 150.94870 | 21979 ft | 315 kts | 175° |
| 2026-05-05 12:34 | -32.72521 | 150.95253 | 21721 ft | 303 kts | 175° |
| 2026-05-05 12:34 | -32.74589 | 150.95624 | 21280 ft | 298 kts | 175° |
| 2026-05-05 12:34 | -32.76627 | 150.95984 | 20805 ft | 295 kts | 174° |
| 2026-05-05 12:35 | -32.78646 | 150.96338 | 20336 ft | 291 kts | 174° |
| 2026-05-05 12:35 | -32.80663 | 150.96691 | 19875 ft | 288 kts | 174° |
| 2026-05-05 12:35 | -32.82633 | 150.97036 | 19426 ft | 284 kts | 174° |
| 2026-05-05 12:35 | -32.84575 | 150.97378 | 18992 ft | 281 kts | 174° |
| 2026-05-05 12:36 | -32.86472 | 150.97713 | 18558 ft | 278 kts | 173° |
| 2026-05-05 12:36 | -32.88368 | 150.98048 | 18068 ft | 275 kts | 173° |
| 2026-05-05 12:36 | -32.90252 | 150.98384 | 17556 ft | 272 kts | 173° |
| 2026-05-05 12:36 | -32.92115 | 150.98717 | 17067 ft | 270 kts | 173° |
| 2026-05-05 12:37 | -32.93962 | 150.99047 | 16582 ft | 267 kts | 173° |
| 2026-05-05 12:37 | -32.95792 | 150.99374 | 16110 ft | 265 kts | 173° |
| 2026-05-05 12:37 | -32.97608 | 150.99699 | 15647 ft | 263 kts | 172° |
| 2026-05-05 12:37 | -32.99411 | 151.00022 | 15187 ft | 261 kts | 172° |
| 2026-05-05 12:38 | -33.01198 | 151.00342 | 14735 ft | 259 kts | 172° |
| 2026-05-05 12:38 | -33.02974 | 151.00660 | 14297 ft | 257 kts | 172° |
| 2026-05-05 12:38 | -33.04734 | 151.00975 | 13830 ft | 255 kts | 172° |
| 2026-05-05 12:38 | -33.06483 | 151.01290 | 13351 ft | 253 kts | 172° |
| 2026-05-05 12:39 | -33.08223 | 151.01606 | 12865 ft | 252 kts | 172° |
| 2026-05-05 12:39 | -33.09951 | 151.01919 | 12390 ft | 251 kts | 172° |
| 2026-05-05 12:39 | -33.11665 | 151.02229 | 12022 ft | 246 kts | 172° |
| 2026-05-05 12:39 | -33.13359 | 151.02536 | 11596 ft | 246 kts | 172° |
| 2026-05-05 12:40 | -33.15047 | 151.02840 | 11195 ft | 245 kts | 172° |
| 2026-05-05 12:40 | -33.16723 | 151.03141 | 10803 ft | 243 kts | 172° |
| 2026-05-05 12:40 | -33.18389 | 151.03440 | 10416 ft | 242 kts | 173° |
| 2026-05-05 12:40 | -33.20048 | 151.03739 | 10031 ft | 240 kts | 173° |
| 2026-05-05 12:41 | -33.21700 | 151.04031 | 9616 ft | 239 kts | 173° |
| 2026-05-05 12:41 | -33.23339 | 151.04299 | 9200 ft | 237 kts | 173° |
| 2026-05-05 12:41 | -33.24972 | 151.04555 | 8801 ft | 236 kts | 173° |
| 2026-05-05 12:41 | -33.26589 | 151.04804 | 8406 ft | 234 kts | 173° |
| 2026-05-05 12:42 | -33.28185 | 151.05049 | 8191 ft | 223 kts | 173° |
| 2026-05-05 12:42 | -33.29684 | 151.05282 | 8209 ft | 217 kts | 173° |
| 2026-05-05 12:42 | -33.31218 | 151.05520 | 8215 ft | 225 kts | 173° |
| 2026-05-05 12:42 | -33.32769 | 151.05762 | 7898 ft | 234 kts | 173° |
| 2026-05-05 12:43 | -33.34374 | 151.06012 | 7546 ft | 231 kts | 173° |
| 2026-05-05 12:43 | -33.35958 | 151.06258 | 7184 ft | 229 kts | 173° |
| 2026-05-05 12:43 | -33.37531 | 151.06504 | 6821 ft | 227 kts | 173° |
| 2026-05-05 12:43 | -33.39090 | 151.06749 | 6450 ft | 225 kts | 172° |
| 2026-05-05 12:44 | -33.40639 | 151.06991 | 6078 ft | 223 kts | 172° |
| 2026-05-05 12:44 | -33.42170 | 151.07229 | 5702 ft | 221 kts | 172° |
| 2026-05-05 12:44 | -33.43688 | 151.07469 | 5333 ft | 220 kts | 172° |
| 2026-05-05 12:44 | -33.45195 | 151.07708 | 4981 ft | 217 kts | 171° |
| 2026-05-05 12:45 | -33.46624 | 151.07936 | 4981 ft | 200 kts | 171° |
| 2026-05-05 12:45 | -33.48027 | 151.08161 | 4993 ft | 208 kts | 171° |
| 2026-05-05 12:45 | -33.49463 | 151.08393 | 4998 ft | 209 kts | 171° |
| 2026-05-05 12:45 | -33.50908 | 151.08627 | 4998 ft | 210 kts | 171° |
| 2026-05-05 12:46 | -33.52361 | 151.08862 | 5008 ft | 211 kts | 171° |
| 2026-05-05 12:46 | -33.53816 | 151.09073 | 4998 ft | 210 kts | 172° |
| 2026-05-05 12:46 | -33.55274 | 151.09255 | 4996 ft | 211 kts | 173° |
| 2026-05-05 12:46 | -33.56730 | 151.09430 | 4997 ft | 210 kts | 173° |
| 2026-05-05 12:47 | -33.58189 | 151.09602 | 4995 ft | 211 kts | 173° |
| 2026-05-05 12:47 | -33.59649 | 151.09778 | 4997 ft | 211 kts | 173° |
| 2026-05-05 12:47 | -33.61107 | 151.09958 | 4997 ft | 210 kts | 173° |
| 2026-05-05 12:47 | -33.62563 | 151.10143 | 5001 ft | 210 kts | 173° |
| 2026-05-05 12:48 | -33.64021 | 151.10333 | 5002 ft | 209 kts | 173° |
| 2026-05-05 12:48 | -33.65391 | 151.10518 | 4997 ft | 187 kts | 172° |
| 2026-05-05 12:48 | -33.66615 | 151.10683 | 4997 ft | 171 kts | 172° |
| 2026-05-05 12:48 | -33.67804 | 151.10857 | 4996 ft | 173 kts | 171° |
| 2026-05-05 12:49 | -33.68991 | 151.11055 | 4878 ft | 175 kts | 171° |
| 2026-05-05 12:49 | -33.70191 | 151.11282 | 4608 ft | 172 kts | 168° |
| 2026-05-05 12:49 | -33.71350 | 151.11557 | 4351 ft | 167 kts | 167° |
| 2026-05-05 12:49 | -33.72479 | 151.11845 | 4123 ft | 165 kts | 166° |
| 2026-05-05 12:50 | -33.73605 | 151.12141 | 3905 ft | 166 kts | 166° |
| 2026-05-05 12:50 | -33.74735 | 151.12436 | 3687 ft | 165 kts | 166° |
| 2026-05-05 12:50 | -33.75851 | 151.12725 | 3465 ft | 163 kts | 166° |
| 2026-05-05 12:50 | -33.76959 | 151.13013 | 3252 ft | 163 kts | 166° |
| 2026-05-05 12:51 | -33.78071 | 151.13302 | 3038 ft | 163 kts | 167° |
| 2026-05-05 12:51 | -33.79166 | 151.13585 | 2815 ft | 163 kts | 167° |
| 2026-05-05 12:51 | -33.80283 | 151.13873 | 2598 ft | 162 kts | 167° |
| 2026-05-05 12:51 | -33.81365 | 151.14154 | 2397 ft | 161 kts | 167° |
| 2026-05-05 12:52 | -33.82461 | 151.14440 | 2170 ft | 161 kts | 167° |
| 2026-05-05 12:52 | -33.83546 | 151.14724 | 1961 ft | 159 kts | 168° |
| 2026-05-05 12:52 | -33.84628 | 151.15002 | 1751 ft | 160 kts | 168° |
| 2026-05-05 12:52 | -33.85716 | 151.15282 | 1534 ft | 159 kts | 168° |
| 2026-05-05 12:53 | -33.86802 | 151.15562 | 1331 ft | 160 kts | 168° |
| 2026-05-05 12:53 | -33.87888 | 151.15842 | 1114 ft | 160 kts | 169° |
| 2026-05-05 12:53 | -33.88981 | 151.16126 | 907 ft | 162 kts | 169° |
| 2026-05-05 12:53 | -33.90084 | 151.16420 | 685 ft | 162 kts | 169° |
| 2026-05-05 12:54 | -33.92297 | 151.16993 | 243 ft | 163 kts | 170° |
| 2026-05-05 12:54 | -33.93034 | 151.17179 | 119 ft | 165 kts | 171° |
| 2026-05-05 12:54 | -33.94141 | 151.17456 | 28 ft | 157 kts | 170° |
| 2026-05-05 12:55 | -33.94925 | 151.17670 | 29 ft | 79 kts | 165° |
| 2026-05-05 12:55 | -33.95198 | 151.17818 | 30 ft | 18 kts | 112° |
| 2026-05-05 12:55 | -33.95182 | 151.17913 | 30 ft | 9 kts | 45° |
| 2026-05-05 12:55 | -33.95128 | 151.17936 | 31 ft | 8 kts | 6° |
| 2026-05-05 12:56 | -33.95073 | 151.17933 | 31 ft | 11 kts | 354° |
| 2026-05-05 12:56 | -33.94959 | 151.17902 | 30 ft | 23 kts | 348° |
| 2026-05-05 12:56 | -33.94761 | 151.17853 | 30 ft | 34 kts | 348° |
| 2026-05-05 12:56 | -33.94551 | 151.17798 | 30 ft | 28 kts | 347° |
| 2026-05-05 12:57 | -33.94375 | 151.17746 | 29 ft | 26 kts | 346° |
| 2026-05-05 12:57 | -33.94155 | 151.17680 | 29 ft | 35 kts | 346° |
| 2026-05-05 12:57 | -33.93936 | 151.17624 | 29 ft | 28 kts | 0° |
| 2026-05-05 12:57 | -33.93841 | 151.17739 | 30 ft | 25 kts | 46° |
| 2026-05-05 12:58 | -33.93714 | 151.17791 | 30 ft | 17 kts | 12° |
| 2026-05-05 12:58 | -33.93609 | 151.17815 | 30 ft | 12 kts | 5° |
| 2026-05-05 12:58 | -33.93568 | 151.17778 | 30 ft | 6 kts | 291° |
| 2026-05-05 12:58 | -33.93564 | 151.17760 | 30 ft | 0 kts | 283° |